Eau Claire, WI

7:45 AM CDT on July 29, 2016 (GMT -0500)
Meadowbrook Subdivision | | Change Station

Elev 892 ft 44.77 °N, 91.49 °W | Updated 12 minutes ago

Mostly Cloudy
Mostly Cloudy
58.9 °F
Feels Like 58.9 °F
N
0.0
Wind Variable Wind from SSE

Today
High -- | Low -- °F
--% Chance of Precip.
Yesterday
High -- | Low -- °F
Precip. -- in
Pressure 30.05 in
Visibility 10.0 miles
Clouds Few 4200 ft
Few 7500 ft
Mostly Cloudy 10000 ft
Dew Point 58 °F
Humidity 96%
Rainfall 0.00 in
Snow Depth Not available.
5:49 AM 8:34 PM
Waning Crescent, 22% visible
METAR KEAU 291156Z 02005KT 10SM FEW042 FEW075 BKN100 16/13 A3005 RMK AO2 SLP174 70003 T01610128 10183 20161 53005
Pressure 30.05 in
Visibility 10.0 miles
Clouds Few 4200 ft
Few 7500 ft
Mostly Cloudy 10000 ft
Dew Point 58 °F
Humidity 96%
Rainfall 0.00 in
Snow Depth Not available.
5:49 AM 8:34 PM
Waning Crescent, 22% visible
METAR KEAU 291156Z 02005KT 10SM FEW042 FEW075 BKN100 16/13 A3005 RMK AO2 SLP174 70003 T01610128 10183 20161 53005

10-Day Weather Forecast

Almanac

Astronomy

Jul. 29, 2016 Rise Set
Actual Time
Civil Twilight
Nautical Twilight
Astronomical Twilight
Moon
Length of Visible Light
Length of Day
Tomorrow will be .
, % of the Moon is Illuminated

Today's Extremes

State Highs State Lows

Community

WunderPhotos

Upload Photos

1,928,335 photos uploaded!

WunderBlog® & News

Nearby

Air Quality

  Air Quality AQ Index Pollutant
Not available.

Snow Depth

Station Depth Elevation

Earthquake Activity

City Distance Mag. Time & Date
Minimum magnitude displayed is 2.5.

Coastal Water Temperatures

Place Temperature

Stations

Nearby Weather Stations

Station Location Temp. Windchill Dew Point Humidity Wind Precip. Elev Updated Type
                   

Watches & Warnings

There are currently no watches in effect.